New Paltz, NY (12561)

6:20 AM EST on February 11, 2016 (GMT -0500)
SUNY New Paltz | | Change Station
CLOSE
Current Station
Personal Weather Station
Location: New Paltz, NY
Elevation: 322 ft
Nearby Weather Stations

Elev 322 ft 41.73 °N, 74.09 °W | Updated 4 minutes ago

Partly Cloudy
Partly Cloudy
21.0 °F
Feels Like 21 °F
N
2.9
Wind Variable Wind from West
Gusts 9.0 mph

Today
High -- | Low -- °F
--% Chance of Precip.
Yesterday
High -- | Low -- °F
Precip. -- in
Pressure 29.78 in
Visibility 10.0 miles
Clouds Mostly Cloudy 5000 ft
Mostly Cloudy 6000 ft
Windchill 21 °F
Dew Point 6 °F
Humidity 51%
Rainfall 0.00 in
Snow Depth Not available.
6:57 AM 5:24 PM
Waxing Crescent, 11% visible
METAR KPOU 111053Z 27015G20KT 10SM BKN050 BKN060 M05/M15 A2979 RMK AO2 SLP085 T10501150
Pressure 29.78 in
Visibility 10.0 miles
Clouds Mostly Cloudy 5000 ft
Mostly Cloudy 6000 ft
Windchill 21 °F
Dew Point 6 °F
Humidity 51%
Rainfall 0.00 in
Snow Depth Not available.
6:57 AM 5:24 PM
Waxing Crescent, 11% visible
METAR KPOU 111053Z 27015G20KT 10SM BKN050 BKN060 M05/M15 A2979 RMK AO2 SLP085 T10501150

10-Day Weather Forecast

Almanac

Astronomy

Feb. 11, 2016 Rise Set
Actual Time
Civil Twilight
Nautical Twilight
Astronomical Twilight
Moon
Length of Visible Light
Length of Day
Tomorrow will be .
, % of the Moon is Illuminated

Today's Extremes

State Highs State Lows

Community

WunderPhotos

Upload Photos

1,892,030 photos uploaded!

WunderBlog® & News

Nearby

Air Quality

  Air Quality AQ Index Pollutant
Not available.

Snow Depth

Station Depth Elevation

Earthquake Activity

City Distance Mag. Time & Date
Minimum magnitude displayed is 2.5.

Coastal Water Temperatures

Place Temperature

Stations

Nearby Weather Stations

Station Location Temp. Windchill Dew Point Humidity Wind Precip. Elev Updated Type
                   

Watches & Warnings

There are currently no watches in effect.